This is the latest recevied weather packets stored in our database for station/object WB7AAV. If no packets are shown the sender has not sent any weather packets the latest 10 day(s).
| Time | Temp. | Humidity | Pressure | Rain* | Wind** | Luminosity | Snow |
|---|---|---|---|---|---|---|---|
| 1777714086 | 4.44° C | 47% | 1022.5 hPa | 0 mm | - | - | - |
| 1777712891 | 4.44° C | 48% | 1022.7 hPa | 0 mm | - | - | - |
| 1777712288 | 4.44° C | 47% | 1022.4 hPa | 0 mm | - | - | - |
| 1777711986 | 4.44° C | 47% | 1022.5 hPa | 0 mm | - | - | - |
| 1777711688 | 4.44° C | 46% | 1022.7 hPa | 0 mm | - | - | - |
| 1777711387 | 4.44° C | 46% | 1022.5 hPa | 0 mm | - | - | - |
| 1777710787 | 4.44° C | 45% | 1022.5 hPa | 0 mm | - | - | - |
| 1777710486 | 4.44° C | 46% | 1022.7 hPa | 0 mm | - | - | - |
| 1777708392 | 4.44° C | 45% | 1022.8 hPa | 0 mm | - | - | - |
| 1777707787 | 4.44° C | 44% | 1022.8 hPa | 0 mm | - | - | - |
| 1777707487 | 4.44° C | 44% | 1022.8 hPa | 0 mm | - | - | - |
| 1777700277 | 5° C | 44% | 1022.9 hPa | 0 mm | - | - | - |
| 1777699074 | 5.56° C | 42% | 1022.8 hPa | 0 mm | - | - | - |
| 1777697875 | 5.56° C | 41% | 1022.7 hPa | 0 mm | - | - | - |
| 1777697274 | 5.56° C | 41% | 1022.5 hPa | 0 mm | - | - | - |
| 1777696675 | 6.11° C | 40% | 1022.5 hPa | 0 mm | - | - | - |
| 1777695774 | 6.67° C | 38% | 1022.4 hPa | 0 mm | - | - | - |
| 1777695476 | 6.67° C | 37% | 1022.3 hPa | 0 mm | - | - | - |
| 1777694572 | 6.11° C | 40% | 1022.1 hPa | 0 mm | - | - | - |
| 1777693668 | 6.67° C | 39% | 1021.9 hPa | 0 mm | - | - | - |
| 1777693067 | 6.67° C | 37% | 1021.9 hPa | 0 mm | - | - | - |
| 1777687666 | 8.89° C | 31% | 1020.6 hPa | 0 mm | - | - | - |
| 1777684368 | 12.22° C | 25% | 1020 hPa | 0 mm | - | - | - |
| 1777682567 | 12.78° C | 24% | 1020 hPa | 0 mm | - | - | - |
| 1777681362 | 12.78° C | 26% | 1020 hPa | 0 mm | - | - | - |
* Rain latest hour (hover to see other rain measurements)
** Current wind speed in m/s (hover to see current wind gust speed)